sensor_id;sensor_type;location;lat;lon;timestamp;temperature;humidity
23715;DHT22;12036;50.858;4.472;2023-07-20T00:01:41;16.40;99.90
23715;DHT22;12036;50.858;4.472;2023-07-20T00:04:10;16.50;99.90
23715;DHT22;12036;50.858;4.472;2023-07-20T00:06:36;16.50;99.90
23715;DHT22;12036;50.858;4.472;2023-07-20T00:09:06;16.50;99.90
23715;DHT22;12036;50.858;4.472;2023-07-20T00:11:36;16.60;99.90
23715;DHT22;12036;50.858;4.472;2023-07-20T00:14:02;16.60;99.90
23715;DHT22;12036;50.858;4.472;2023-07-20T00:16:27;16.50;99.90
23715;DHT22;12036;50.858;4.472;2023-07-20T00:18:53;16.60;99.90
23715;DHT22;12036;50.858;4.472;2023-07-20T00:21:18;16.50;99.90
23715;DHT22;12036;50.858;4.472;2023-07-20T00:23:45;16.50;99.90
23715;DHT22;12036;50.858;4.472;2023-07-20T00:26:11;16.50;99.90
23715;DHT22;12036;50.858;4.472;2023-07-20T00:28:36;16.50;99.90
23715;DHT22;12036;50.858;4.472;2023-07-20T00:31:02;16.60;99.90
23715;DHT22;12036;50.858;4.472;2023-07-20T00:33:28;16.50;99.90
23715;DHT22;12036;50.858;4.472;2023-07-20T00:35:53;16.70;99.90
23715;DHT22;12036;50.858;4.472;2023-07-20T00:38:19;16.70;99.90
23715;DHT22;12036;50.858;4.472;2023-07-20T00:40:46;16.60;99.90
23715;DHT22;12036;50.858;4.472;2023-07-20T00:43:11;16.70;99.90
23715;DHT22;12036;50.858;4.472;2023-07-20T00:45:38;16.60;99.90
23715;DHT22;12036;50.858;4.472;2023-07-20T00:48:05;16.60;99.90
23715;DHT22;12036;50.858;4.472;2023-07-20T00:50:32;16.70;99.90
23715;DHT22;12036;50.858;4.472;2023-07-20T00:52:59;16.60;99.90
23715;DHT22;12036;50.858;4.472;2023-07-20T00:55:25;16.70;99.90
23715;DHT22;12036;50.858;4.472;2023-07-20T00:57:52;16.70;99.90
23715;DHT22;12036;50.858;4.472;2023-07-20T01:00:18;16.70;99.90
23715;DHT22;12036;50.858;4.472;2023-07-20T01:02:45;16.70;99.90
23715;DHT22;12036;50.858;4.472;2023-07-20T01:05:11;16.70;99.90
23715;DHT22;12036;50.858;4.472;2023-07-20T01:08:02;16.70;99.90
23715;DHT22;12036;50.858;4.472;2023-07-20T01:10:39;16.60;99.90
23715;DHT22;12036;50.858;4.472;2023-07-20T01:13:07;16.70;99.90
23715;DHT22;12036;50.858;4.472;2023-07-20T01:15:35;16.70;99.90
23715;DHT22;12036;50.858;4.472;2023-07-20T01:18:01;16.80;99.90
23715;DHT22;12036;50.858;4.472;2023-07-20T01:20:28;16.70;99.90
23715;DHT22;12036;50.858;4.472;2023-07-20T01:23:50;16.50;99.90
23715;DHT22;12036;50.858;4.472;2023-07-20T01:31:40;16.70;99.90
23715;DHT22;12036;50.858;4.472;2023-07-20T01:34:09;16.70;99.90
23715;DHT22;12036;50.858;4.472;2023-07-20T01:36:38;16.60;99.90
23715;DHT22;12036;50.858;4.472;2023-07-20T01:39:04;16.70;99.90
23715;DHT22;12036;50.858;4.472;2023-07-20T01:41:31;16.70;99.90
23715;DHT22;12036;50.858;4.472;2023-07-20T01:43:58;16.80;99.90
23715;DHT22;12036;50.858;4.472;2023-07-20T01:46:27;16.70;99.90
23715;DHT22;12036;50.858;4.472;2023-07-20T01:48:53;16.70;99.90
23715;DHT22;12036;50.858;4.472;2023-07-20T01:51:19;16.70;99.90
23715;DHT22;12036;50.858;4.472;2023-07-20T01:53:45;16.70;99.90
23715;DHT22;12036;50.858;4.472;2023-07-20T01:56:10;16.60;99.90
23715;DHT22;12036;50.858;4.472;2023-07-20T01:58:38;16.70;99.90
23715;DHT22;12036;50.858;4.472;2023-07-20T02:01:04;16.60;99.90
23715;DHT22;12036;50.858;4.472;2023-07-20T02:03:29;16.60;99.90
23715;DHT22;12036;50.858;4.472;2023-07-20T02:05:55;16.60;99.90
23715;DHT22;12036;50.858;4.472;2023-07-20T02:08:22;16.60;99.90
23715;DHT22;12036;50.858;4.472;2023-07-20T02:10:48;16.60;99.90
23715;DHT22;12036;50.858;4.472;2023-07-20T02:13:14;16.60;99.90
23715;DHT22;12036;50.858;4.472;2023-07-20T02:15:41;16.60;99.90
23715;DHT22;12036;50.858;4.472;2023-07-20T02:18:08;16.70;99.90
23715;DHT22;12036;50.858;4.472;2023-07-20T02:20:34;16.60;99.90
23715;DHT22;12036;50.858;4.472;2023-07-20T02:22:59;16.60;99.90
23715;DHT22;12036;50.858;4.472;2023-07-20T02:25:25;16.60;99.90
23715;DHT22;12036;50.858;4.472;2023-07-20T02:27:50;16.60;99.90
23715;DHT22;12036;50.858;4.472;2023-07-20T02:30:16;16.60;99.90
23715;DHT22;12036;50.858;4.472;2023-07-20T02:32:43;16.60;99.90
23715;DHT22;12036;50.858;4.472;2023-07-20T02:35:11;16.70;99.90
23715;DHT22;12036;50.858;4.472;2023-07-20T02:37:37;16.70;99.90
23715;DHT22;12036;50.858;4.472;2023-07-20T02:40:03;16.70;99.90
23715;DHT22;12036;50.858;4.472;2023-07-20T02:42:30;16.60;99.90
23715;DHT22;12036;50.858;4.472;2023-07-20T02:44:55;16.60;99.90
23715;DHT22;12036;50.858;4.472;2023-07-20T02:47:21;16.60;99.90
23715;DHT22;12036;50.858;4.472;2023-07-20T02:49:47;16.50;99.90
23715;DHT22;12036;50.858;4.472;2023-07-20T02:52:12;16.50;99.90
23715;DHT22;12036;50.858;4.472;2023-07-20T02:54:38;16.50;99.90
23715;DHT22;12036;50.858;4.472;2023-07-20T02:57:04;16.50;99.90
23715;DHT22;12036;50.858;4.472;2023-07-20T02:59:29;16.40;99.90
23715;DHT22;12036;50.858;4.472;2023-07-20T03:01:55;16.40;99.90
23715;DHT22;12036;50.858;4.472;2023-07-20T03:04:21;16.40;99.90
23715;DHT22;12036;50.858;4.472;2023-07-20T03:06:47;16.40;99.90
23715;DHT22;12036;50.858;4.472;2023-07-20T03:09:12;16.40;99.90
23715;DHT22;12036;50.858;4.472;2023-07-20T03:11:38;16.30;99.90
23715;DHT22;12036;50.858;4.472;2023-07-20T03:14:05;16.30;99.90
23715;DHT22;12036;50.858;4.472;2023-07-20T03:16:30;16.30;99.90
23715;DHT22;12036;50.858;4.472;2023-07-20T03:18:59;16.30;99.90
23715;DHT22;12036;50.858;4.472;2023-07-20T03:21:25;16.30;99.90
23715;DHT22;12036;50.858;4.472;2023-07-20T03:23:51;16.30;99.90
23715;DHT22;12036;50.858;4.472;2023-07-20T03:26:17;16.30;99.90
23715;DHT22;12036;50.858;4.472;2023-07-20T03:28:42;16.30;99.90
23715;DHT22;12036;50.858;4.472;2023-07-20T03:31:08;16.30;99.90
23715;DHT22;12036;50.858;4.472;2023-07-20T03:33:34;16.30;99.90
23715;DHT22;12036;50.858;4.472;2023-07-20T03:36:00;16.30;99.90
23715;DHT22;12036;50.858;4.472;2023-07-20T03:38:26;16.30;99.90
23715;DHT22;12036;50.858;4.472;2023-07-20T03:40:57;16.30;99.90
23715;DHT22;12036;50.858;4.472;2023-07-20T03:43:24;16.30;99.90
23715;DHT22;12036;50.858;4.472;2023-07-20T03:45:50;16.20;99.90
23715;DHT22;12036;50.858;4.472;2023-07-20T03:48:16;16.20;99.90
23715;DHT22;12036;50.858;4.472;2023-07-20T03:50:45;16.20;99.90
23715;DHT22;12036;50.858;4.472;2023-07-20T03:53:11;16.30;99.90
23715;DHT22;12036;50.858;4.472;2023-07-20T03:55:37;16.30;99.90
23715;DHT22;12036;50.858;4.472;2023-07-20T03:58:03;16.20;99.90
23715;DHT22;12036;50.858;4.472;2023-07-20T04:00:28;16.30;99.90
23715;DHT22;12036;50.858;4.472;2023-07-20T04:02:54;16.40;99.90
23715;DHT22;12036;50.858;4.472;2023-07-20T04:05:20;16.40;99.90
23715;DHT22;12036;50.858;4.472;2023-07-20T04:07:46;16.40;99.90
23715;DHT22;12036;50.858;4.472;2023-07-20T04:10:12;16.40;99.90
23715;DHT22;12036;50.858;4.472;2023-07-20T04:12:38;16.40;99.90
23715;DHT22;12036;50.858;4.472;2023-07-20T04:15:04;16.50;99.90
23715;DHT22;12036;50.858;4.472;2023-07-20T04:17:30;16.50;99.90
23715;DHT22;12036;50.858;4.472;2023-07-20T04:19:55;16.50;99.90
23715;DHT22;12036;50.858;4.472;2023-07-20T04:22:21;16.60;99.90
23715;DHT22;12036;50.858;4.472;2023-07-20T04:24:47;16.60;99.90
23715;DHT22;12036;50.858;4.472;2023-07-20T04:27:12;16.60;99.90
23715;DHT22;12036;50.858;4.472;2023-07-20T04:29:38;16.60;99.90
23715;DHT22;12036;50.858;4.472;2023-07-20T04:32:04;16.70;99.90
23715;DHT22;12036;50.858;4.472;2023-07-20T04:34:30;16.70;99.90
23715;DHT22;12036;50.858;4.472;2023-07-20T04:36:55;16.70;99.90
23715;DHT22;12036;50.858;4.472;2023-07-20T04:39:21;16.70;99.90
23715;DHT22;12036;50.858;4.472;2023-07-20T04:41:47;16.70;99.90
23715;DHT22;12036;50.858;4.472;2023-07-20T04:44:13;16.80;99.90
23715;DHT22;12036;50.858;4.472;2023-07-20T04:46:39;16.80;99.90
23715;DHT22;12036;50.858;4.472;2023-07-20T04:49:05;16.90;99.90
23715;DHT22;12036;50.858;4.472;2023-07-20T04:51:31;16.90;99.90
23715;DHT22;12036;50.858;4.472;2023-07-20T04:53:57;16.90;99.90
23715;DHT22;12036;50.858;4.472;2023-07-20T04:56:23;17.00;99.90
23715;DHT22;12036;50.858;4.472;2023-07-20T04:58:50;17.00;99.90
23715;DHT22;12036;50.858;4.472;2023-07-20T05:01:15;17.00;99.90
23715;DHT22;12036;50.858;4.472;2023-07-20T05:03:41;17.00;99.90
23715;DHT22;12036;50.858;4.472;2023-07-20T05:06:07;17.10;99.90
23715;DHT22;12036;50.858;4.472;2023-07-20T05:08:32;17.10;99.90
23715;DHT22;12036;50.858;4.472;2023-07-20T05:10:59;17.10;99.90
23715;DHT22;12036;50.858;4.472;2023-07-20T05:13:25;17.10;99.90
23715;DHT22;12036;50.858;4.472;2023-07-20T05:15:52;17.20;99.90
23715;DHT22;12036;50.858;4.472;2023-07-20T05:18:18;17.20;99.90
23715;DHT22;12036;50.858;4.472;2023-07-20T05:20:48;17.30;99.90
23715;DHT22;12036;50.858;4.472;2023-07-20T05:23:14;17.30;99.90
23715;DHT22;12036;50.858;4.472;2023-07-20T05:25:40;17.30;99.90
23715;DHT22;12036;50.858;4.472;2023-07-20T05:28:06;17.40;99.90
23715;DHT22;12036;50.858;4.472;2023-07-20T05:30:31;17.40;99.90
23715;DHT22;12036;50.858;4.472;2023-07-20T05:32:57;17.40;99.90
23715;DHT22;12036;50.858;4.472;2023-07-20T05:35:23;17.40;99.90
23715;DHT22;12036;50.858;4.472;2023-07-20T05:37:49;17.50;99.90
23715;DHT22;12036;50.858;4.472;2023-07-20T05:40:15;17.60;99.90
23715;DHT22;12036;50.858;4.472;2023-07-20T05:42:45;17.60;99.90
23715;DHT22;12036;50.858;4.472;2023-07-20T05:45:11;17.60;99.90
23715;DHT22;12036;50.858;4.472;2023-07-20T05:47:36;17.60;99.90
23715;DHT22;12036;50.858;4.472;2023-07-20T05:50:02;17.50;99.90
23715;DHT22;12036;50.858;4.472;2023-07-20T05:52:29;17.50;99.90
23715;DHT22;12036;50.858;4.472;2023-07-20T05:54:54;17.60;99.90
23715;DHT22;12036;50.858;4.472;2023-07-20T05:57:20;17.60;99.90
23715;DHT22;12036;50.858;4.472;2023-07-20T05:59:46;17.70;99.90
23715;DHT22;12036;50.858;4.472;2023-07-20T06:02:12;17.60;99.90
23715;DHT22;12036;50.858;4.472;2023-07-20T06:04:39;17.60;99.90
23715;DHT22;12036;50.858;4.472;2023-07-20T06:07:05;17.60;99.90
23715;DHT22;12036;50.858;4.472;2023-07-20T06:09:31;17.50;99.90
23715;DHT22;12036;50.858;4.472;2023-07-20T06:11:56;17.60;99.90
23715;DHT22;12036;50.858;4.472;2023-07-20T06:14:22;17.60;99.90
23715;DHT22;12036;50.858;4.472;2023-07-20T06:16:48;17.60;99.90
23715;DHT22;12036;50.858;4.472;2023-07-20T06:19:13;17.60;99.90
23715;DHT22;12036;50.858;4.472;2023-07-20T06:21:39;17.70;99.90
23715;DHT22;12036;50.858;4.472;2023-07-20T06:24:05;17.80;99.90
23715;DHT22;12036;50.858;4.472;2023-07-20T06:26:31;17.90;99.90
23715;DHT22;12036;50.858;4.472;2023-07-20T06:28:56;18.00;99.90
23715;DHT22;12036;50.858;4.472;2023-07-20T06:31:22;18.00;99.90
23715;DHT22;12036;50.858;4.472;2023-07-20T06:33:48;18.10;99.90
23715;DHT22;12036;50.858;4.472;2023-07-20T06:36:16;18.20;99.90
23715;DHT22;12036;50.858;4.472;2023-07-20T06:38:41;18.30;99.90
23715;DHT22;12036;50.858;4.472;2023-07-20T06:41:07;18.40;99.90
23715;DHT22;12036;50.858;4.472;2023-07-20T06:43:32;18.40;99.90
23715;DHT22;12036;50.858;4.472;2023-07-20T06:45:58;18.40;99.90
23715;DHT22;12036;50.858;4.472;2023-07-20T06:48:24;18.40;99.90
23715;DHT22;12036;50.858;4.472;2023-07-20T06:50:50;18.40;99.90
23715;DHT22;12036;50.858;4.472;2023-07-20T06:53:15;18.30;99.90
23715;DHT22;12036;50.858;4.472;2023-07-20T06:55:42;18.40;99.90
23715;DHT22;12036;50.858;4.472;2023-07-20T06:58:08;18.40;99.90
23715;DHT22;12036;50.858;4.472;2023-07-20T07:00:34;18.50;99.90
23715;DHT22;12036;50.858;4.472;2023-07-20T07:03:00;18.50;99.90
23715;DHT22;12036;50.858;4.472;2023-07-20T07:05:26;18.60;99.90
23715;DHT22;12036;50.858;4.472;2023-07-20T07:07:51;18.70;99.90
23715;DHT22;12036;50.858;4.472;2023-07-20T07:10:17;18.70;99.90
23715;DHT22;12036;50.858;4.472;2023-07-20T07:12:43;18.80;99.90
23715;DHT22;12036;50.858;4.472;2023-07-20T07:15:09;18.80;99.90
23715;DHT22;12036;50.858;4.472;2023-07-20T07:17:36;18.90;99.90
23715;DHT22;12036;50.858;4.472;2023-07-20T07:20:02;18.90;99.90
23715;DHT22;12036;50.858;4.472;2023-07-20T07:22:29;19.00;99.90
23715;DHT22;12036;50.858;4.472;2023-07-20T07:24:54;19.20;99.90
23715;DHT22;12036;50.858;4.472;2023-07-20T07:27:20;19.30;99.90
23715;DHT22;12036;50.858;4.472;2023-07-20T07:29:46;19.40;99.90
23715;DHT22;12036;50.858;4.472;2023-07-20T07:32:12;19.50;99.90
23715;DHT22;12036;50.858;4.472;2023-07-20T07:34:38;19.70;99.90
23715;DHT22;12036;50.858;4.472;2023-07-20T07:37:04;19.70;99.90
23715;DHT22;12036;50.858;4.472;2023-07-20T07:39:30;19.90;99.90
23715;DHT22;12036;50.858;4.472;2023-07-20T07:41:56;20.10;99.90
23715;DHT22;12036;50.858;4.472;2023-07-20T07:44:22;20.30;99.90
23715;DHT22;12036;50.858;4.472;2023-07-20T07:46:48;20.40;99.90
23715;DHT22;12036;50.858;4.472;2023-07-20T07:49:15;20.20;99.90
23715;DHT22;12036;50.858;4.472;2023-07-20T07:51:40;19.90;99.90
23715;DHT22;12036;50.858;4.472;2023-07-20T07:54:06;19.80;99.90
23715;DHT22;12036;50.858;4.472;2023-07-20T07:56:32;19.70;99.90
23715;DHT22;12036;50.858;4.472;2023-07-20T07:58:58;19.80;99.90
23715;DHT22;12036;50.858;4.472;2023-07-20T08:01:23;19.70;99.90
23715;DHT22;12036;50.858;4.472;2023-07-20T08:03:49;19.70;99.90
23715;DHT22;12036;50.858;4.472;2023-07-20T08:06:15;19.70;99.90
23715;DHT22;12036;50.858;4.472;2023-07-20T08:08:41;19.80;99.90
23715;DHT22;12036;50.858;4.472;2023-07-20T08:11:07;19.90;99.90
23715;DHT22;12036;50.858;4.472;2023-07-20T08:13:33;20.10;99.90
23715;DHT22;12036;50.858;4.472;2023-07-20T08:15:59;20.30;99.90
23715;DHT22;12036;50.858;4.472;2023-07-20T08:18:25;20.40;99.90
23715;DHT22;12036;50.858;4.472;2023-07-20T08:20:50;20.50;99.90
23715;DHT22;12036;50.858;4.472;2023-07-20T08:23:16;20.60;99.90
23715;DHT22;12036;50.858;4.472;2023-07-20T08:25:42;20.60;99.90
23715;DHT22;12036;50.858;4.472;2023-07-20T08:28:13;20.50;99.90
23715;DHT22;12036;50.858;4.472;2023-07-20T08:30:43;20.40;99.90
23715;DHT22;12036;50.858;4.472;2023-07-20T08:33:10;20.70;99.90
23715;DHT22;12036;50.858;4.472;2023-07-20T08:35:36;20.90;99.90
23715;DHT22;12036;50.858;4.472;2023-07-20T08:38:02;21.00;99.90
23715;DHT22;12036;50.858;4.472;2023-07-20T08:40:33;21.10;99.90
23715;DHT22;12036;50.858;4.472;2023-07-20T08:42:59;21.20;99.90
23715;DHT22;12036;50.858;4.472;2023-07-20T08:45:28;21.20;99.90
23715;DHT22;12036;50.858;4.472;2023-07-20T08:47:56;21.20;99.90
23715;DHT22;12036;50.858;4.472;2023-07-20T08:50:28;21.40;99.90
23715;DHT22;12036;50.858;4.472;2023-07-20T08:52:57;21.40;99.90
23715;DHT22;12036;50.858;4.472;2023-07-20T08:55:25;21.30;99.90
23715;DHT22;12036;50.858;4.472;2023-07-20T08:57:53;21.50;99.90
23715;DHT22;12036;50.858;4.472;2023-07-20T09:00:20;21.90;99.90
23715;DHT22;12036;50.858;4.472;2023-07-20T09:02:51;22.20;99.90
23715;DHT22;12036;50.858;4.472;2023-07-20T09:05:18;22.40;99.30
23715;DHT22;12036;50.858;4.472;2023-07-20T09:07:44;22.60;98.90
23715;DHT22;12036;50.858;4.472;2023-07-20T09:10:10;22.70;98.30
23715;DHT22;12036;50.858;4.472;2023-07-20T09:12:40;22.90;98.20
23715;DHT22;12036;50.858;4.472;2023-07-20T09:15:07;23.20;97.80
23715;DHT22;12036;50.858;4.472;2023-07-20T09:17:34;23.40;95.90
23715;DHT22;12036;50.858;4.472;2023-07-20T09:20:04;23.30;95.00
23715;DHT22;12036;50.858;4.472;2023-07-20T09:22:37;23.80;94.60
23715;DHT22;12036;50.858;4.472;2023-07-20T09:25:08;24.80;93.60
23715;DHT22;12036;50.858;4.472;2023-07-20T09:27:41;25.00;92.60
23715;DHT22;12036;50.858;4.472;2023-07-20T09:30:07;24.50;92.50
23715;DHT22;12036;50.858;4.472;2023-07-20T09:32:47;24.30;92.30
23715;DHT22;12036;50.858;4.472;2023-07-20T09:35:14;23.70;93.00
23715;DHT22;12036;50.858;4.472;2023-07-20T09:37:59;23.30;93.50
23715;DHT22;12036;50.858;4.472;2023-07-20T09:40:26;23.20;94.20
23715;DHT22;12036;50.858;4.472;2023-07-20T09:42:53;23.30;95.10
23715;DHT22;12036;50.858;4.472;2023-07-20T09:46:01;23.30;95.00
23715;DHT22;12036;50.858;4.472;2023-07-20T09:48:24;23.60;94.30
23715;DHT22;12036;50.858;4.472;2023-07-20T09:50:50;23.70;92.40
23715;DHT22;12036;50.858;4.472;2023-07-20T09:53:19;23.70;92.30
23715;DHT22;12036;50.858;4.472;2023-07-20T09:55:46;23.50;92.60
23715;DHT22;12036;50.858;4.472;2023-07-20T09:58:12;23.30;92.90
23715;DHT22;12036;50.858;4.472;2023-07-20T10:00:40;23.20;92.30
23715;DHT22;12036;50.858;4.472;2023-07-20T10:03:11;23.00;93.60
23715;DHT22;12036;50.858;4.472;2023-07-20T10:05:40;22.90;93.70
23715;DHT22;12036;50.858;4.472;2023-07-20T10:08:11;22.70;93.80
23715;DHT22;12036;50.858;4.472;2023-07-20T10:10:40;22.40;93.80
23715;DHT22;12036;50.858;4.472;2023-07-20T10:13:09;22.40;94.10
23715;DHT22;12036;50.858;4.472;2023-07-20T10:15:59;22.30;95.90
23715;DHT22;12036;50.858;4.472;2023-07-20T10:19:05;22.50;96.30
23715;DHT22;12036;50.858;4.472;2023-07-20T10:21:35;23.80;94.30
23715;DHT22;12036;50.858;4.472;2023-07-20T10:24:03;24.80;92.20
23715;DHT22;12036;50.858;4.472;2023-07-20T10:26:29;26.00;91.20
23715;DHT22;12036;50.858;4.472;2023-07-20T10:28:55;27.00;89.40
23715;DHT22;12036;50.858;4.472;2023-07-20T10:31:23;27.80;84.80
23715;DHT22;12036;50.858;4.472;2023-07-20T10:33:49;28.40;79.50
23715;DHT22;12036;50.858;4.472;2023-07-20T10:36:16;27.80;79.30
23715;DHT22;12036;50.858;4.472;2023-07-20T10:41:28;25.90;82.10
23715;DHT22;12036;50.858;4.472;2023-07-20T10:44:04;25.20;85.50
23715;DHT22;12036;50.858;4.472;2023-07-20T10:46:44;24.80;85.90
23715;DHT22;12036;50.858;4.472;2023-07-20T10:49:11;24.50;85.90
23715;DHT22;12036;50.858;4.472;2023-07-20T10:51:50;24.00;89.50
23715;DHT22;12036;50.858;4.472;2023-07-20T10:56:50;23.60;90.90
23715;DHT22;12036;50.858;4.472;2023-07-20T10:59:20;23.50;90.50
23715;DHT22;12036;50.858;4.472;2023-07-20T11:02:06;23.30;90.40
23715;DHT22;12036;50.858;4.472;2023-07-20T11:04:43;22.80;90.60
23715;DHT22;12036;50.858;4.472;2023-07-20T11:07:09;22.60;91.40
23715;DHT22;12036;50.858;4.472;2023-07-20T11:09:39;22.40;91.50
23715;DHT22;12036;50.858;4.472;2023-07-20T11:12:15;22.30;92.80
23715;DHT22;12036;50.858;4.472;2023-07-20T11:14:42;22.20;93.00
23715;DHT22;12036;50.858;4.472;2023-07-20T11:17:13;22.10;93.60
23715;DHT22;12036;50.858;4.472;2023-07-20T11:19:39;22.00;94.00
23715;DHT22;12036;50.858;4.472;2023-07-20T11:22:05;21.90;94.50
23715;DHT22;12036;50.858;4.472;2023-07-20T11:24:33;21.90;94.80
23715;DHT22;12036;50.858;4.472;2023-07-20T11:26:59;21.90;94.80
23715;DHT22;12036;50.858;4.472;2023-07-20T11:29:26;22.10;94.60
23715;DHT22;12036;50.858;4.472;2023-07-20T11:31:52;22.20;94.30
23715;DHT22;12036;50.858;4.472;2023-07-20T11:34:19;22.40;94.00
23715;DHT22;12036;50.858;4.472;2023-07-20T11:36:49;22.60;93.90
23715;DHT22;12036;50.858;4.472;2023-07-20T11:39:17;22.70;93.50
23715;DHT22;12036;50.858;4.472;2023-07-20T11:41:49;22.80;92.90
23715;DHT22;12036;50.858;4.472;2023-07-20T11:44:19;22.80;92.10
23715;DHT22;12036;50.858;4.472;2023-07-20T11:46:46;22.80;92.10
23715;DHT22;12036;50.858;4.472;2023-07-20T11:49:12;22.70;93.20
23715;DHT22;12036;50.858;4.472;2023-07-20T11:51:39;22.70;93.40
23715;DHT22;12036;50.858;4.472;2023-07-20T11:54:07;22.60;93.30
23715;DHT22;12036;50.858;4.472;2023-07-20T11:56:33;22.70;94.20
23715;DHT22;12036;50.858;4.472;2023-07-20T11:58:59;22.70;93.50
23715;DHT22;12036;50.858;4.472;2023-07-20T12:01:27;22.90;93.00
23715;DHT22;12036;50.858;4.472;2023-07-20T12:04:01;22.90;92.20
23715;DHT22;12036;50.858;4.472;2023-07-20T12:06:29;23.00;92.40
23715;DHT22;12036;50.858;4.472;2023-07-20T12:08:56;23.20;92.10
23715;DHT22;12036;50.858;4.472;2023-07-20T12:11:36;23.30;92.20
23715;DHT22;12036;50.858;4.472;2023-07-20T12:14:11;23.60;92.40
23715;DHT22;12036;50.858;4.472;2023-07-20T12:16:37;23.60;90.90
23715;DHT22;12036;50.858;4.472;2023-07-20T12:19:13;23.70;91.60
23715;DHT22;12036;50.858;4.472;2023-07-20T12:21:40;23.70;90.70
23715;DHT22;12036;50.858;4.472;2023-07-20T12:24:08;23.60;90.30
23715;DHT22;12036;50.858;4.472;2023-07-20T12:26:37;23.70;90.70
23715;DHT22;12036;50.858;4.472;2023-07-20T12:29:03;23.70;90.60
23715;DHT22;12036;50.858;4.472;2023-07-20T12:31:29;23.90;90.60
23715;DHT22;12036;50.858;4.472;2023-07-20T12:33:56;24.00;90.80
23715;DHT22;12036;50.858;4.472;2023-07-20T12:36:23;24.10;90.20
23715;DHT22;12036;50.858;4.472;2023-07-20T12:38:48;24.10;90.20
23715;DHT22;12036;50.858;4.472;2023-07-20T12:41:14;24.10;91.10
23715;DHT22;12036;50.858;4.472;2023-07-20T12:43:46;24.10;90.20
23715;DHT22;12036;50.858;4.472;2023-07-20T12:46:13;24.10;91.00
23715;DHT22;12036;50.858;4.472;2023-07-20T12:48:39;24.20;91.00
23715;DHT22;12036;50.858;4.472;2023-07-20T12:51:08;24.30;90.40
23715;DHT22;12036;50.858;4.472;2023-07-20T12:53:34;24.50;88.80
23715;DHT22;12036;50.858;4.472;2023-07-20T12:56:00;24.50;88.60
23715;DHT22;12036;50.858;4.472;2023-07-20T12:58:26;24.60;88.80
23715;DHT22;12036;50.858;4.472;2023-07-20T13:00:52;24.70;88.80
23715;DHT22;12036;50.858;4.472;2023-07-20T13:03:18;24.70;86.90
23715;DHT22;12036;50.858;4.472;2023-07-20T13:05:48;24.60;85.00
23715;DHT22;12036;50.858;4.472;2023-07-20T13:08:15;24.40;86.10
23715;DHT22;12036;50.858;4.472;2023-07-20T13:10:41;24.10;86.30
23715;DHT22;12036;50.858;4.472;2023-07-20T13:13:07;24.00;86.90
23715;DHT22;12036;50.858;4.472;2023-07-20T13:15:40;23.90;86.40
23715;DHT22;12036;50.858;4.472;2023-07-20T13:18:06;23.70;87.00
23715;DHT22;12036;50.858;4.472;2023-07-20T13:20:31;23.50;88.80
23715;DHT22;12036;50.858;4.472;2023-07-20T13:22:57;23.30;90.00
23715;DHT22;12036;50.858;4.472;2023-07-20T13:25:23;23.10;90.00
23715;DHT22;12036;50.858;4.472;2023-07-20T13:27:48;23.00;90.30
23715;DHT22;12036;50.858;4.472;2023-07-20T13:30:14;22.90;91.00
23715;DHT22;12036;50.858;4.472;2023-07-20T13:32:45;22.80;92.00
23715;DHT22;12036;50.858;4.472;2023-07-20T13:35:14;22.50;92.30
23715;DHT22;12036;50.858;4.472;2023-07-20T13:37:41;22.20;92.90
23715;DHT22;12036;50.858;4.472;2023-07-20T13:40:07;21.70;94.20
23715;DHT22;12036;50.858;4.472;2023-07-20T13:42:37;21.40;94.30
23715;DHT22;12036;50.858;4.472;2023-07-20T13:45:03;21.20;94.80
23715;DHT22;12036;50.858;4.472;2023-07-20T13:47:29;21.00;95.60
23715;DHT22;12036;50.858;4.472;2023-07-20T13:49:55;20.90;96.90
23715;DHT22;12036;50.858;4.472;2023-07-20T13:52:21;20.90;96.80
23715;DHT22;12036;50.858;4.472;2023-07-20T13:54:47;20.80;95.60
23715;DHT22;12036;50.858;4.472;2023-07-20T13:57:12;20.80;95.30
23715;DHT22;12036;50.858;4.472;2023-07-20T13:59:38;20.90;95.40
23715;DHT22;12036;50.858;4.472;2023-07-20T14:02:04;20.90;95.40
23715;DHT22;12036;50.858;4.472;2023-07-20T14:04:30;21.00;95.80
23715;DHT22;12036;50.858;4.472;2023-07-20T14:06:55;21.10;96.00
23715;DHT22;12036;50.858;4.472;2023-07-20T14:09:21;21.30;95.70
23715;DHT22;12036;50.858;4.472;2023-07-20T14:11:47;21.50;95.80
23715;DHT22;12036;50.858;4.472;2023-07-20T14:14:12;21.60;95.80
23715;DHT22;12036;50.858;4.472;2023-07-20T14:16:38;21.70;95.80
23715;DHT22;12036;50.858;4.472;2023-07-20T14:19:04;21.80;95.70
23715;DHT22;12036;50.858;4.472;2023-07-20T14:21:30;21.90;95.10
23715;DHT22;12036;50.858;4.472;2023-07-20T14:23:56;22.00;94.40
23715;DHT22;12036;50.858;4.472;2023-07-20T14:26:23;22.20;93.50
23715;DHT22;12036;50.858;4.472;2023-07-20T14:28:49;22.60;93.90
23715;DHT22;12036;50.858;4.472;2023-07-20T14:31:14;23.10;93.10
23715;DHT22;12036;50.858;4.472;2023-07-20T14:33:40;23.70;92.30
23715;DHT22;12036;50.858;4.472;2023-07-20T14:36:06;24.10;89.60
23715;DHT22;12036;50.858;4.472;2023-07-20T14:38:33;24.30;88.70
23715;DHT22;12036;50.858;4.472;2023-07-20T14:40:59;24.40;89.80
23715;DHT22;12036;50.858;4.472;2023-07-20T14:43:24;24.30;90.10
23715;DHT22;12036;50.858;4.472;2023-07-20T14:45:50;24.40;90.30
23715;DHT22;12036;50.858;4.472;2023-07-20T14:48:16;24.50;90.50
23715;DHT22;12036;50.858;4.472;2023-07-20T14:50:41;24.70;90.00
23715;DHT22;12036;50.858;4.472;2023-07-20T14:53:08;24.70;88.50
23715;DHT22;12036;50.858;4.472;2023-07-20T14:55:33;24.60;89.80
23715;DHT22;12036;50.858;4.472;2023-07-20T14:57:59;24.80;88.40
23715;DHT22;12036;50.858;4.472;2023-07-20T15:00:25;24.70;88.10
23715;DHT22;12036;50.858;4.472;2023-07-20T15:02:51;24.50;88.30
23715;DHT22;12036;50.858;4.472;2023-07-20T15:05:22;24.30;89.00
23715;DHT22;12036;50.858;4.472;2023-07-20T15:07:48;24.30;88.00
23715;DHT22;12036;50.858;4.472;2023-07-20T15:10:13;24.10;87.40
23715;DHT22;12036;50.858;4.472;2023-07-20T15:12:39;23.90;89.00
23715;DHT22;12036;50.858;4.472;2023-07-20T15:15:12;23.80;89.70
23715;DHT22;12036;50.858;4.472;2023-07-20T15:17:39;23.90;87.80
23715;DHT22;12036;50.858;4.472;2023-07-20T15:20:06;23.70;87.10
23715;DHT22;12036;50.858;4.472;2023-07-20T15:22:33;23.60;88.10
23715;DHT22;12036;50.858;4.472;2023-07-20T15:24:59;23.50;88.00
23715;DHT22;12036;50.858;4.472;2023-07-20T15:27:26;23.50;87.70
23715;DHT22;12036;50.858;4.472;2023-07-20T15:29:51;23.40;88.50
23715;DHT22;12036;50.858;4.472;2023-07-20T15:32:20;23.30;89.30
23715;DHT22;12036;50.858;4.472;2023-07-20T15:34:46;23.20;89.70
23715;DHT22;12036;50.858;4.472;2023-07-20T15:37:12;23.00;89.80
23715;DHT22;12036;50.858;4.472;2023-07-20T15:39:38;22.90;89.70
23715;DHT22;12036;50.858;4.472;2023-07-20T15:42:04;22.80;89.20